Time;durP1;ratioP1;P1;durP2;ratioP2;P2;SDS_P1;SDS_P2;PMS_P1;PMS_P2;Temp;Humidity;BMP_temperature;BMP_pressure;BME280_temperature;BME280_humidity;BME280_pressure;Samples;Min_cycle;Max_cycle;Signal;HPM_P1;HPM_P2
2023/05/15 00:00:25;;;;;;;;;;;;;;;22.77;55.13;99021.78;7322650;19;130331;-40
2023/05/15 00:02:51;;;;;;;;;;;;;;;22.78;54.87;99019.94;7324330;19;129642;-39
2023/05/15 00:05:16;;;;;;;;;;;;;;;22.77;55.17;99013.09;7321327;19;129686;-40
2023/05/15 00:07:41;;;;;;;;;;;;;;;22.62;55.15;98991.09;7317173;19;129943;-40
2023/05/15 00:10:07;;;;;;;;;;;;;;;22.76;54.71;99011.44;7316463;19;129645;-39
2023/05/15 00:12:32;;;;;;;;;;;;;;;22.70;55.03;98996.34;7320699;19;129363;-40
2023/05/15 00:14:58;;;;;;;;;;;;;;;22.80;55.13;99004.91;7318444;19;129151;-39
2023/05/15 00:17:24;;;;;;;;;;;;;;;22.79;54.38;99000.66;7321487;19;129304;-40
2023/05/15 00:19:49;;;;;;;;;;;;;;;22.79;54.42;99000.66;7322813;19;129208;-40
2023/05/15 00:22:15;;;;;;;;;;;;;;;22.77;54.54;98995.56;7318273;19;129977;-40
2023/05/15 00:24:40;;;;;;;;;;;;;;;22.77;54.74;98997.34;7315323;19;129403;-38
2023/05/15 00:27:05;;;;;;;;;;;;;;;22.80;54.51;98997.84;7308212;19;129769;-39
2023/05/15 00:29:31;;;;;;;;;;;;;;;22.80;55.11;98991.78;7309428;19;130863;-39
2023/05/15 00:31:56;;;;;;;;;;;;;;;22.76;55.09;98988.66;7305239;19;129363;-40
2023/05/15 00:34:21;;;;;;;;;;;;;;;22.76;54.43;98990.47;7307408;19;129271;-42
2023/05/15 00:36:47;;;;;;;;;;;;;;;22.77;54.55;98987.72;7299960;19;130173;-39
2023/05/15 00:39:12;;;;;;;;;;;;;;;22.71;54.68;98977.06;7313322;19;129620;-40
2023/05/15 00:41:37;;;;;;;;;;;;;;;22.80;54.97;98981.31;7313692;19;130396;-41
2023/05/15 00:44:03;;;;;;;;;;;;;;;22.80;54.92;98982.13;7313230;19;129876;-40
2023/05/15 00:46:30;;;;;;;;;;;;;;;22.78;54.94;98967.53;7313941;19;129317;-39
2023/05/15 00:48:56;;;;;;;;;;;;;;;22.80;54.85;98970.81;7314251;19;129535;-40
2023/05/15 00:51:21;;;;;;;;;;;;;;;22.74;55.07;98958.38;7312846;19;129896;-40
2023/05/15 00:53:49;;;;;;;;;;;;;;;22.61;55.10;98943.13;7314668;19;129555;-39
2023/05/15 00:56:15;;;;;;;;;;;;;;;22.74;54.80;98961.00;7312239;19;129445;-39
2023/05/15 00:58:41;;;;;;;;;;;;;;;22.77;54.59;98958.03;7313497;19;129911;-40
2023/05/15 01:01:06;;;;;;;;;;;;;;;22.76;55.00;98959.00;7313865;19;129758;-40
2023/05/15 01:03:32;;;;;;;;;;;;;;;22.80;54.93;98960.34;7315251;19;129518;-40
2023/05/15 01:05:57;;;;;;;;;;;;;;;22.77;54.85;98955.44;7312442;19;130745;-40
2023/05/15 01:08:26;;;;;;;;;;;;;;;22.78;54.68;98959.69;7314918;19;130259;-42
2023/05/15 01:10:51;;;;;;;;;;;;;;;22.80;54.50;98955.09;7310319;19;129890;-38
2023/05/15 01:13:18;;;;;;;;;;;;;;;22.81;54.74;98964.59;7304880;19;129128;-40
2023/05/15 01:15:44;;;;;;;;;;;;;;;22.78;54.71;98951.81;7312070;19;130355;-39
2023/05/15 01:18:09;;;;;;;;;;;;;;;22.80;55.11;98944.63;7314248;19;129520;-40
2023/05/15 01:20:45;;;;;;;;;;;;;;;22.79;55.19;98948.22;7313369;19;129084;-39
2023/05/15 01:23:25;;;;;;;;;;;;;;;22.78;54.95;98946.56;7313182;19;130149;-40
2023/05/15 01:25:53;;;;;;;;;;;;;;;22.76;54.54;98944.13;7311735;19;129774;-39
2023/05/15 01:28:23;;;;;;;;;;;;;;;22.75;54.94;98941.66;7312520;19;129655;-40
2023/05/15 01:30:49;;;;;;;;;;;;;;;22.77;54.42;98934.47;7312999;19;130103;-40
2023/05/15 01:33:21;;;;;;;;;;;;;;;22.81;54.47;98941.00;7311821;19;128963;-40
2023/05/15 01:35:53;;;;;;;;;;;;;;;22.79;54.68;98948.22;7311557;19;129431;-40
2023/05/15 01:38:19;;;;;;;;;;;;;;;22.81;54.80;98947.06;7310544;19;129633;-39
2023/05/15 01:40:46;;;;;;;;;;;;;;;22.82;55.08;98942.66;7312895;19;131013;-40
2023/05/15 01:43:15;;;;;;;;;;;;;;;22.80;54.41;98939.38;7312047;19;130161;-41
2023/05/15 01:45:41;;;;;;;;;;;;;;;22.80;54.61;98939.38;7312577;19;131686;-40
2023/05/15 01:48:07;;;;;;;;;;;;;;;22.66;54.63;98905.97;7312686;19;129714;-40
2023/05/15 01:50:34;;;;;;;;;;;;;;;22.61;55.32;98903.00;7310718;19;129923;-40
2023/05/15 01:53:01;;;;;;;;;;;;;;;22.76;54.92;98923.16;7314426;19;129013;-40
2023/05/15 01:55:26;;;;;;;;;;;;;;;22.76;54.54;98917.09;7311316;19;130827;-40
2023/05/15 01:57:51;;;;;;;;;;;;;;;22.77;54.70;98923.97;7309391;19;129143;-40
2023/05/15 02:00:17;;;;;;;;;;;;;;;22.76;55.42;98922.31;7311019;19;129368;-40
2023/05/15 02:02:43;;;;;;;;;;;;;;;22.77;54.96;98923.97;7311434;19;129900;-40
2023/05/15 02:05:09;;;;;;;;;;;;;;;22.77;55.21;98918.75;7312584;19;129251;-40
2023/05/15 02:07:34;;;;;;;;;;;;;;;22.76;55.25;98914.47;7310892;19;129982;-40
2023/05/15 02:10:00;;;;;;;;;;;;;;;22.76;55.16;98917.09;7310032;19;129798;-40
2023/05/15 02:12:27;;;;;;;;;;;;;;;22.80;54.56;98918.41;7306863;19;129587;-39
2023/05/15 02:14:53;;;;;;;;;;;;;;;22.80;54.99;98918.41;7310364;19;130976;-39
2023/05/15 02:17:19;;;;;;;;;;;;;;;22.77;54.59;98909.09;7311627;19;130469;-40
2023/05/15 02:19:44;;;;;;;;;;;;;;;22.81;55.21;98913.00;7309574;19;129745;-40
2023/05/15 02:22:09;;;;;;;;;;;;;;;22.78;54.92;98912.50;7311853;19;129409;-40
2023/05/15 02:24:34;;;;;;;;;;;;;;;22.77;54.96;98911.72;7311269;19;129255;-39
2023/05/15 02:27:21;;;;;;;;;;;;;;;22.79;54.59;98911.53;7308864;19;129353;-41
2023/05/15 02:29:46;;;;;;;;;;;;;;;22.78;55.09;98915.13;7310060;19;129240;-39
2023/05/15 02:32:33;;;;;;;;;;;;;;;22.80;55.09;98911.38;7309665;19;129872;-41
2023/05/15 02:35:17;;;;;;;;;;;;;;;22.78;54.98;98908.09;7311245;19;129534;-40
2023/05/15 02:37:45;;;;;;;;;;;;;;;22.80;55.06;98905.31;7308354;19;130009;-40
2023/05/15 02:40:12;;;;;;;;;;;;;;;22.77;55.05;98892.53;7308581;19;128780;-40
2023/05/15 02:42:37;;;;;;;;;;;;;;;22.77;55.20;98893.38;7311642;19;130646;-40
2023/05/15 02:45:04;;;;;;;;;;;;;;;22.75;55.19;98887.47;7311252;19;129634;-40
2023/05/15 02:47:31;;;;;;;;;;;;;;;22.67;54.77;98868.28;7308406;19;130394;-40
2023/05/15 02:49:57;;;;;;;;;;;;;;;22.77;54.60;98877.63;7303247;19;130547;-40
2023/05/15 02:52:23;;;;;;;;;;;;;;;22.77;54.76;98879.44;7310363;19;129704;-41
2023/05/15 02:54:48;;;;;;;;;;;;;;;22.76;54.80;98875.97;7309294;19;129850;-39
2023/05/15 02:57:13;;;;;;;;;;;;;;;22.79;54.92;98880.88;7311844;19;129931;-40
2023/05/15 02:59:38;;;;;;;;;;;;;;;22.75;54.65;98869.13;7309429;19;130427;-39
2023/05/15 03:02:04;;;;;;;;;;;;;;;22.80;54.90;98881.72;7308135;19;129329;-39
2023/05/15 03:04:30;;;;;;;;;;;;;;;22.79;54.57;98880.09;7309217;19;129338;-40
2023/05/15 03:06:55;;;;;;;;;;;;;;;22.80;55.37;98872.06;7311121;19;129678;-40
2023/05/15 03:09:20;;;;;;;;;;;;;;;22.79;54.35;98870.41;7311083;19;129146;-41
2023/05/15 03:11:45;;;;;;;;;;;;;;;22.80;54.52;98872.06;7308456;19;129252;-40
2023/05/15 03:14:11;;;;;;;;;;;;;;;22.80;54.65;98876.47;7309286;19;129429;-39
2023/05/15 03:16:37;;;;;;;;;;;;;;;22.75;55.36;98863.88;7308984;19;130027;-40
2023/05/15 03:19:02;;;;;;;;;;;;;;;22.76;55.24;98864.66;7309355;19;130316;-42
2023/05/15 03:21:28;;;;;;;;;;;;;;;22.77;55.26;98869.78;7308373;19;129328;-40
2023/05/15 03:23:53;;;;;;;;;;;;;;;22.78;55.03;98867.94;7310829;19;129633;-41
2023/05/15 03:26:18;;;;;;;;;;;;;;;22.63;55.03;98846.00;7308911;19;130842;-42
2023/05/15 03:28:43;;;;;;;;;;;;;;;22.76;55.37;98864.66;7309757;19;129484;-39
2023/05/15 03:31:09;;;;;;;;;;;;;;;22.75;54.59;98866.50;7306967;19;129323;-39
2023/05/15 03:33:34;;;;;;;;;;;;;;;22.78;54.94;98873.19;7311142;19;129640;-40
2023/05/15 03:35:59;;;;;;;;;;;;;;;22.77;55.03;98868.94;7307830;19;130181;-39
2023/05/15 03:38:24;;;;;;;;;;;;;;;22.76;55.27;98872.53;7305639;19;129059;-40
2023/05/15 03:40:49;;;;;;;;;;;;;;;22.73;55.11;98865.00;7307282;19;129173;-39
2023/05/15 03:43:15;;;;;;;;;;;;;;;22.76;55.18;98864.66;7308532;19;129089;-40
2023/05/15 03:45:40;;;;;;;;;;;;;;;22.74;54.95;98862.22;7308291;19;129195;-39
2023/05/15 03:48:05;;;;;;;;;;;;;;;22.76;55.09;98862.03;7308257;19;129731;-40
2023/05/15 03:50:30;;;;;;;;;;;;;;;22.65;54.97;98844.88;7309917;19;128996;-41
2023/05/15 03:52:56;;;;;;;;;;;;;;;22.75;54.97;98863.03;7307025;19;129692;-39
2023/05/15 03:55:21;;;;;;;;;;;;;;;22.63;55.31;98835.53;7306261;19;130243;-42
2023/05/15 03:57:46;;;;;;;;;;;;;;;22.74;54.85;98862.22;7304386;19;130071;-39
2023/05/15 04:00:12;;;;;;;;;;;;;;;22.61;55.06;98829.66;7308878;19;129337;-40
2023/05/15 04:02:38;;;;;;;;;;;;;;;22.76;54.85;98859.44;7315963;19;129223;-39
2023/05/15 04:05:04;;;;;;;;;;;;;;;22.65;55.14;98836.19;7312717;19;129708;-41
2023/05/15 04:07:30;;;;;;;;;;;;;;;22.78;54.68;98857.47;7309104;19;128945;-40
2023/05/15 04:09:55;;;;;;;;;;;;;;;22.77;54.69;98856.66;7315584;19;129914;-39
2023/05/15 04:12:21;;;;;;;;;;;;;;;22.62;54.83;98829.50;7314245;19;131419;-40
2023/05/15 04:14:46;;;;;;;;;;;;;;;22.77;54.83;98858.47;7315863;19;129582;-39
2023/05/15 04:17:11;;;;;;;;;;;;;;;22.76;55.22;98854.19;7315385;19;129570;-40
2023/05/15 04:19:37;;;;;;;;;;;;;;;22.73;55.49;98851.91;7315859;19;130222;-40
2023/05/15 04:22:02;;;;;;;;;;;;;;;22.65;55.30;98830.94;7309359;19;130362;-39
2023/05/15 04:24:27;;;;;;;;;;;;;;;22.77;54.77;98850.59;7312981;19;130798;-38
2023/05/15 04:26:52;;;;;;;;;;;;;;;22.77;55.18;98845.38;7315268;19;128809;-39
2023/05/15 04:29:18;;;;;;;;;;;;;;;22.76;54.99;98839.28;7313298;19;129325;-39
2023/05/15 04:31:43;;;;;;;;;;;;;;;22.71;55.12;98836.34;7313912;19;129510;-41
2023/05/15 04:34:08;;;;;;;;;;;;;;;22.76;55.02;98843.69;7312868;19;129709;-39
2023/05/15 04:36:33;;;;;;;;;;;;;;;22.77;54.52;98833.09;7313557;19;129106;-39
2023/05/15 04:38:59;;;;;;;;;;;;;;;22.75;54.84;98842.06;7312625;19;129135;-40
2023/05/15 04:41:25;;;;;;;;;;;;;;;22.72;55.01;98832.75;7312104;19;130205;-40
2023/05/15 04:43:50;;;;;;;;;;;;;;;22.76;55.33;98839.28;7309477;19;131291;-38
2023/05/15 04:46:16;;;;;;;;;;;;;;;22.76;54.60;98827.97;7311747;19;129219;-40
2023/05/15 04:48:41;;;;;;;;;;;;;;;22.61;55.08;98806.88;7311445;19;131801;-41
2023/05/15 04:51:06;;;;;;;;;;;;;;;22.76;54.54;98833.22;7310902;19;129998;-40
2023/05/15 04:53:31;;;;;;;;;;;;;;;22.75;55.34;98827.19;7313950;19;129408;-40
2023/05/15 04:55:57;;;;;;;;;;;;;;;22.79;55.05;98827.69;7310797;19;130385;-40
2023/05/15 04:58:22;;;;;;;;;;;;;;;22.74;54.94;98822.91;7313937;19;130661;-40
2023/05/15 05:00:47;;;;;;;;;;;;;;;22.74;54.74;98819.50;7304172;19;129641;-40
2023/05/15 05:03:12;;;;;;;;;;;;;;;22.73;54.92;98823.06;7312175;19;129186;-39
2023/05/15 05:05:37;;;;;;;;;;;;;;;22.74;55.04;98815.03;7310891;19;129556;-38
2023/05/15 05:08:03;;;;;;;;;;;;;;;22.73;55.47;98817.84;7314329;19;129538;-41
2023/05/15 05:10:28;;;;;;;;;;;;;;;22.71;54.82;98819.81;7302596;19;130998;-39
2023/05/15 05:12:54;;;;;;;;;;;;;;;22.67;55.36;98810.66;7303489;19;130601;-41
2023/05/15 05:15:19;;;;;;;;;;;;;;;22.72;54.97;98816.22;7311349;19;130643;-39
2023/05/15 05:17:44;;;;;;;;;;;;;;;22.72;55.20;98816.22;7305647;19;129850;-39
2023/05/15 05:20:10;;;;;;;;;;;;;;;22.72;55.54;98810.97;7303136;19;131513;-42
2023/05/15 05:22:36;;;;;;;;;;;;;;;22.72;55.15;98810.97;7298955;19;129562;-40
2023/05/15 05:25:01;;;;;;;;;;;;;;;22.64;54.83;98792.66;7306690;19;131765;-42
2023/05/15 05:27:26;;;;;;;;;;;;;;;22.72;55.58;98803.09;7298685;19;130218;-39
2023/05/15 05:29:53;;;;;;;;;;;;;;;22.61;55.21;98788.53;7304443;19;131538;-39
2023/05/15 05:32:18;;;;;;;;;;;;;;;22.73;54.82;98802.13;7305700;19;131518;-41
2023/05/15 05:34:43;;;;;;;;;;;;;;;22.75;55.26;98798.34;7311303;19;130433;-38
2023/05/15 05:37:08;;;;;;;;;;;;;;;22.72;55.03;98797.88;7310879;19;129199;-39
2023/05/15 05:39:34;;;;;;;;;;;;;;;22.70;55.60;98786.72;7305367;19;132810;-40
2023/05/15 05:41:59;;;;;;;;;;;;;;;22.75;55.50;98787.03;7304793;19;130576;-40
2023/05/15 05:44:25;;;;;;;;;;;;;;;22.72;54.92;98776.91;7308988;19;129868;-42
2023/05/15 05:46:51;;;;;;;;;;;;;;;22.70;55.54;98778.88;7308808;19;129720;-39
2023/05/15 05:49:16;;;;;;;;;;;;;;;22.71;55.51;98783.16;7312573;19;129340;-40
2023/05/15 05:51:41;;;;;;;;;;;;;;;22.72;55.42;98785.59;7312469;19;129421;-41
2023/05/15 05:54:06;;;;;;;;;;;;;;;22.71;55.47;98783.16;7313447;19;131191;-39
2023/05/15 05:56:32;;;;;;;;;;;;;;;22.72;55.41;98775.13;7310040;19;128858;-40
2023/05/15 05:58:58;;;;;;;;;;;;;;;22.70;55.24;98776.25;7311809;19;131602;-41
2023/05/15 06:01:23;;;;;;;;;;;;;;;22.71;55.58;98783.94;7311429;19;130128;-40
2023/05/15 06:03:48;;;;;;;;;;;;;;;22.73;55.24;98771.50;7313804;19;129063;-39
2023/05/15 06:06:14;;;;;;;;;;;;;;;22.68;54.75;98767.72;7311440;19;129300;-40
2023/05/15 06:08:39;;;;;;;;;;;;;;;22.71;54.95;98770.84;7313752;19;129639;-40
2023/05/15 06:11:05;;;;;;;;;;;;;;;22.71;54.74;98770.84;7306897;19;129376;-40
2023/05/15 06:13:30;;;;;;;;;;;;;;;22.72;54.97;98761.19;7313536;19;129199;-40
2023/05/15 06:15:55;;;;;;;;;;;;;;;22.67;55.30;98761.69;7306255;19;130120;-40
2023/05/15 06:18:21;;;;;;;;;;;;;;;22.55;55.12;98734.19;7311166;19;129211;-40
2023/05/15 06:20:46;;;;;;;;;;;;;;;22.70;55.11;98757.91;7310249;19;129969;-39
2023/05/15 06:23:11;;;;;;;;;;;;;;;22.71;54.91;98756.94;7310433;19;132089;-40
2023/05/15 06:25:36;;;;;;;;;;;;;;;22.70;55.56;98748.25;7310006;19;129885;-40
2023/05/15 06:28:02;;;;;;;;;;;;;;;22.68;55.49;98755.47;7314093;19;130406;-40
2023/05/15 06:30:27;;;;;;;;;;;;;;;22.59;54.94;98727.63;7311772;19;129220;-40
2023/05/15 06:32:53;;;;;;;;;;;;;;;22.68;55.21;98744.16;7310894;19;130125;-39
2023/05/15 06:35:18;;;;;;;;;;;;;;;22.71;55.57;98746.47;7311158;19;129273;-42
2023/05/15 06:37:43;;;;;;;;;;;;;;;22.69;55.65;98737.94;7312615;19;129954;-39
2023/05/15 06:40:09;;;;;;;;;;;;;;;22.69;55.06;98743.97;7311416;19;129150;-41
2023/05/15 06:42:34;;;;;;;;;;;;;;;22.70;55.61;98740.38;7312920;19;129426;-39
2023/05/15 06:44:59;;;;;;;;;;;;;;;22.56;55.08;98714.06;7311956;19;128876;-41
2023/05/15 06:47:24;;;;;;;;;;;;;;;22.71;54.89;98741.22;7312749;19;129441;-40
2023/05/15 06:49:50;;;;;;;;;;;;;;;22.70;54.76;98734.31;7312710;19;129476;-39
2023/05/15 06:52:15;;;;;;;;;;;;;;;22.68;55.18;98741.53;7307546;19;129017;-40
2023/05/15 06:54:41;;;;;;;;;;;;;;;22.69;54.87;98740.56;7311636;19;129797;-41
2023/05/15 06:57:06;;;;;;;;;;;;;;;22.71;55.18;98741.22;7311146;19;128991;-40
2023/05/15 06:59:34;;;;;;;;;;;;;;;22.69;55.13;98732.69;7312370;19;129938;-40
2023/05/15 07:02:00;;;;;;;;;;;;;;;22.68;55.59;98733.66;7308424;19;128970;-40
2023/05/15 07:04:26;;;;;;;;;;;;;;;22.65;55.27;98726.97;7312291;19;129322;-40
2023/05/15 07:06:51;;;;;;;;;;;;;;;22.67;55.55;98732.03;7311786;19;129397;-38
2023/05/15 07:09:16;;;;;;;;;;;;;;;22.67;55.19;98718.94;7310798;19;131135;-40
2023/05/15 07:11:41;;;;;;;;;;;;;;;22.63;55.05;98709.78;7307804;19;131947;-40
2023/05/15 07:14:07;;;;;;;;;;;;;;;22.68;55.26;98717.94;7311480;19;130355;-40
2023/05/15 07:16:32;;;;;;;;;;;;;;;22.68;55.41;98723.19;7311116;19;131002;-39
2023/05/15 07:18:57;;;;;;;;;;;;;;;22.68;55.56;98724.00;7310506;19;130138;-40
2023/05/15 07:21:22;;;;;;;;;;;;;;;22.69;55.06;98714.34;7308935;19;129074;-40
2023/05/15 07:23:48;;;;;;;;;;;;;;;22.67;55.13;98718.94;7310995;19;129723;-38
2023/05/15 07:26:13;;;;;;;;;;;;;;;22.70;55.44;98713.38;7309552;19;130002;-40
2023/05/15 07:28:38;;;;;;;;;;;;;;;22.68;55.33;98716.16;7309229;19;129620;-39
2023/05/15 07:31:03;;;;;;;;;;;;;;;22.57;54.96;98697.34;7309571;19;129446;-40
2023/05/15 07:33:29;;;;;;;;;;;;;;;22.64;55.23;98706.19;7310415;19;128990;-39
2023/05/15 07:35:54;;;;;;;;;;;;;;;22.62;55.40;98701.13;7314398;19;129258;-39
2023/05/15 07:38:19;;;;;;;;;;;;;;;22.67;54.99;98714.53;7314328;19;129488;-40
2023/05/15 07:40:44;;;;;;;;;;;;;;;22.67;54.99;98713.69;7316683;19;129529;-38
2023/05/15 07:43:09;;;;;;;;;;;;;;;22.66;55.11;98706.84;7318089;19;129997;-39
2023/05/15 07:45:35;;;;;;;;;;;;;;;22.66;55.05;98707.63;7314503;19;129321;-40
2023/05/15 07:48:12;;;;;;;;;;;;;;;22.67;54.96;98708.47;7317006;19;131599;-40
2023/05/15 07:50:37;;;;;;;;;;;;;;;22.65;55.15;98715.66;7315307;19;131134;-41
2023/05/15 07:53:02;;;;;;;;;;;;;;;22.66;55.13;98712.09;7315509;19;129009;-40
2023/05/15 07:55:29;;;;;;;;;;;;;;;22.65;55.56;98707.81;7316620;19;129459;-40
2023/05/15 07:57:54;;;;;;;;;;;;;;;22.65;54.96;98716.50;7317612;19;130072;-38
2023/05/15 08:00:20;;;;;;;;;;;;;;;22.64;55.23;98711.44;7315496;19;130527;-40
2023/05/15 08:02:46;;;;;;;;;;;;;;;22.67;55.33;98708.47;7317549;19;128925;-41
2023/05/15 08:05:11;;;;;;;;;;;;;;;22.66;54.97;98712.09;7316540;19;129336;-41
2023/05/15 08:07:36;;;;;;;;;;;;;;;22.52;55.50;98689.16;7313278;19;129267;-39
2023/05/15 08:10:04;;;;;;;;;;;;;;;22.64;55.23;98700.94;7314479;19;129242;-40
2023/05/15 08:12:30;;;;;;;;;;;;;;;22.63;54.98;98701.91;7316385;19;129450;-38
2023/05/15 08:14:55;;;;;;;;;;;;;;;22.66;55.27;98709.47;7314421;19;130450;-39
2023/05/15 08:17:20;;;;;;;;;;;;;;;;;;7316817;19;129543;-40
2023/05/15 08:19:46;;;;;;;;;;;;;;;22.65;55.23;98705.19;7315582;19;128988;-39
2023/05/15 08:22:11;;;;;;;;;;;;;;;22.63;54.95;98699.28;7314506;19;129374;-39
2023/05/15 08:24:37;;;;;;;;;;;;;;;22.66;55.33;98701.59;7314279;19;129083;-40
2023/05/15 08:27:06;;;;;;;;;;;;;;;22.54;55.25;98679.34;7311607;19;131974;-39
2023/05/15 08:29:31;;;;;;;;;;;;;;;22.51;55.44;98677.03;7317159;19;129019;-39
2023/05/15 08:31:57;;;;;;;;;;;;;;;22.65;54.91;98706.00;7312914;19;128986;-39
2023/05/15 08:34:22;;;;;;;;;;;;;;;22.50;54.91;98672.78;7314519;19;129268;-41
2023/05/15 08:36:47;;;;;;;;;;;;;;;;;;7313538;19;131338;-39
2023/05/15 08:39:12;;;;;;;;;;;;;;;22.63;54.93;98696.66;7316363;19;129051;-39
2023/05/15 08:41:47;;;;;;;;;;;;;;;22.65;55.00;98694.69;7310909;19;129852;-40
2023/05/15 08:44:13;;;;;;;;;;;;;;;22.62;54.98;98698.50;7312923;19;129759;-39
2023/05/15 08:46:38;;;;;;;;;;;;;;;22.62;55.54;98695.88;7311908;19;129875;-39
2023/05/15 08:49:07;;;;;;;;;;;;;;;22.65;55.61;98699.94;7316201;19;130137;-42
2023/05/15 08:51:33;;;;;;;;;;;;;;;22.63;54.96;98702.72;7311714;19;129570;-40
2023/05/15 08:53:58;;;;;;;;;;;;;;;22.54;55.57;98677.56;7313332;19;129785;-41
2023/05/15 08:56:23;;;;;;;;;;;;;;;22.58;55.01;98693.72;7312819;19;129426;-39
2023/05/15 08:58:49;;;;;;;;;;;;;;;22.50;55.60;98675.38;7316210;19;129345;-40
2023/05/15 09:01:15;;;;;;;;;;;;;;;22.59;55.51;98690.94;7313944;19;129588;-39
2023/05/15 09:03:40;;;;;;;;;;;;;;;22.63;55.20;98696.66;7315682;19;129214;-40
2023/05/15 09:06:06;;;;;;;;;;;;;;;22.65;55.60;98694.69;7310028;19;131281;-40
2023/05/15 09:08:32;;;;;;;;;;;;;;;22.63;55.37;98692.25;7316039;19;129441;-38
2023/05/15 09:10:59;;;;;;;;;;;;;;;22.62;54.90;98692.44;7313286;19;129105;-39
2023/05/15 09:13:24;;;;;;;;;;;;;;;22.61;55.35;98688.97;7313521;19;130408;-39
2023/05/15 09:15:50;;;;;;;;;;;;;;;22.60;55.23;98681.28;7312090;19;130225;-39
2023/05/15 09:18:16;;;;;;;;;;;;;;;22.61;55.59;98682.94;7316771;19;130314;-39
2023/05/15 09:20:41;;;;;;;;;;;;;;;22.59;55.06;98690.16;7312254;19;129164;-41
2023/05/15 09:23:21;;;;;;;;;;;;;;;22.64;55.39;98682.59;7313155;19;129924;-39
2023/05/15 09:25:51;;;;;;;;;;;;;;;22.63;55.82;98686.19;7312824;19;129850;-41
2023/05/15 09:28:27;;;;;;;;;;;;;;;22.62;55.23;98685.41;7314834;19;128849;-41
2023/05/15 09:30:59;;;;;;;;;;;;;;;22.63;55.17;98680.94;7313555;19;128860;-40
2023/05/15 09:33:32;;;;;;;;;;;;;;;22.64;55.60;98679.97;7313311;19;129967;-38
2023/05/15 09:35:57;;;;;;;;;;;;;;;22.63;55.46;98678.34;7310938;19;129479;-39
2023/05/15 09:38:23;;;;;;;;;;;;;;;22.54;55.36;98661.00;7312733;19;129378;-40
2023/05/15 09:40:48;;;;;;;;;;;;;;;22.61;54.92;98668.03;7310986;19;129214;-40
2023/05/15 09:43:14;;;;;;;;;;;;;;;22.62;54.88;98672.28;7312593;19;129938;-41
2023/05/15 09:45:39;;;;;;;;;;;;;;;22.64;55.34;98677.38;7310249;19;129694;-41
2023/05/15 09:48:06;;;;;;;;;;;;;;;22.61;54.80;98662.00;7311574;19;130794;-39
2023/05/15 09:50:35;;;;;;;;;;;;;;;22.61;55.16;98664.59;7314267;19;128976;-40
2023/05/15 09:53:01;;;;;;;;;;;;;;;22.61;55.72;98670.63;7311695;19;129926;-40
2023/05/15 09:55:26;;;;;;;;;;;;;;;22.61;55.06;98673.25;7312349;19;129650;-41
2023/05/15 09:58:06;;;;;;;;;;;;;;;22.63;55.40;98678.34;7307783;19;129135;-40
2023/05/15 10:00:33;;;;;;;;;;;;;;;22.61;55.57;98668.03;7307318;19;129223;-40
2023/05/15 10:03:00;;;;;;;;;;;;;;;22.63;55.34;98673.09;7306836;19;129607;-40
2023/05/15 10:05:25;;;;;;;;;;;;;;;;;;7312376;19;129662;-41
2023/05/15 10:07:52;;;;;;;;;;;;;;;22.62;55.33;98674.09;7313362;19;129203;-39
2023/05/15 10:10:17;;;;;;;;;;;;;;;22.63;54.95;98670.47;7311737;19;129515;-40
2023/05/15 10:12:43;;;;;;;;;;;;;;;22.62;55.48;98674.09;7312208;19;129082;-40
2023/05/15 10:15:09;;;;;;;;;;;;;;;22.62;55.22;98671.47;7312175;19;131016;-39
2023/05/15 10:17:35;;;;;;;;;;;;;;;22.62;55.05;98671.47;7312003;19;130039;-41
2023/05/15 10:20:01;;;;;;;;;;;;;;;22.61;54.94;98668.03;7312544;19;129139;-40
2023/05/15 10:22:31;;;;;;;;;;;;;;;22.60;55.16;98665.56;7314073;19;129503;-39
2023/05/15 10:25:16;;;;;;;;;;;;;;;22.61;55.05;98667.22;7312925;19;129465;-39
2023/05/15 10:27:42;;;;;;;;;;;;;;;22.58;55.31;98654.44;7311606;19;129609;-40
2023/05/15 10:30:08;;;;;;;;;;;;;;;22.60;55.38;98662.94;7312522;19;129107;-39
2023/05/15 10:32:34;;;;;;;;;;;;;;;22.62;55.26;98658.38;7308173;19;131499;-40
2023/05/15 10:35:00;;;;;;;;;;;;;;;22.60;55.18;98649.84;7312559;19;130152;-41
2023/05/15 10:37:27;;;;;;;;;;;;;;;22.57;55.14;98639.72;7313194;19;129281;-40
2023/05/15 10:39:52;;;;;;;;;;;;;;;22.60;55.60;98647.22;7313106;19;128890;-40
2023/05/15 10:42:18;;;;;;;;;;;;;;;22.48;55.51;98624.97;7311279;19;129233;-40
2023/05/15 10:44:43;;;;;;;;;;;;;;;22.60;55.38;98645.44;7312052;19;129389;-40
2023/05/15 10:47:09;;;;;;;;;;;;;;;22.53;55.15;98622.69;7310721;19;129359;-40
2023/05/15 10:49:35;;;;;;;;;;;;;;;22.61;55.11;98638.41;7312651;19;129086;-41
2023/05/15 10:52:00;;;;;;;;;;;;;;;22.62;55.49;98629.56;7308800;19;130612;-40
2023/05/15 10:54:25;;;;;;;;;;;;;;;22.59;55.34;98637.75;7312992;19;129487;-40
2023/05/15 10:56:54;;;;;;;;;;;;;;;22.59;54.87;98629.91;7311917;19;129341;-40
2023/05/15 10:59:19;;;;;;;;;;;;;;;22.59;55.61;98624.66;7313365;19;129911;-38
2023/05/15 11:01:44;;;;;;;;;;;;;;;22.61;55.21;98630.56;7309353;19;131111;-40
2023/05/15 11:04:10;;;;;;;;;;;;;;;22.57;55.64;98618.75;7310992;19;129330;-39
2023/05/15 11:06:36;;;;;;;;;;;;;;;22.50;55.11;98599.44;7311302;19;129755;-40
2023/05/15 11:09:20;;;;;;;;;;;;;;;22.61;55.72;98614.84;7311828;19;129453;-40
2023/05/15 11:11:51;;;;;;;;;;;;;;;22.59;55.62;98606.31;7308052;19;129078;-40
2023/05/15 11:14:17;;;;;;;;;;;;;;;22.47;55.30;98576.19;7311439;19;129286;-40
2023/05/15 11:16:54;;;;;;;;;;;;;;;22.59;55.78;98595.84;7309650;19;129482;-39
2023/05/15 11:19:22;;;;;;;;;;;;;;;22.60;55.38;98587.81;7312035;19;129368;-41
2023/05/15 11:21:52;;;;;;;;;;;;;;;22.59;55.28;98586.16;7308960;19;130002;-40
2023/05/15 11:24:17;;;;;;;;;;;;;;;22.59;55.67;98585.34;7310708;19;129783;-41
2023/05/15 11:26:43;;;;;;;;;;;;;;;22.61;55.68;98583.38;7309660;19;128911;-39
2023/05/15 11:29:17;;;;;;;;;;;;;;;22.60;55.69;98581.75;7311151;19;129074;-40
2023/05/15 11:31:43;;;;;;;;;;;;;;;22.61;55.69;98572.91;7307336;19;129272;-39
2023/05/15 11:34:08;;;;;;;;;;;;;;;22.59;55.49;98570.44;7311390;19;129697;-40
2023/05/15 11:36:38;;;;;;;;;;;;;;;22.58;55.36;98574.06;7311212;19;128658;-41
2023/05/15 11:39:08;;;;;;;;;;;;;;;22.59;55.24;98569.63;7309603;19;129108;-40
2023/05/15 11:41:34;;;;;;;;;;;;;;;22.58;55.06;98578.47;7308417;19;129778;-40
2023/05/15 11:44:00;;;;;;;;;;;;;;;22.59;55.56;98580.91;7310247;19;129716;-39
2023/05/15 11:46:26;;;;;;;;;;;;;;;22.60;55.51;98574.72;7309061;19;129415;-40
2023/05/15 11:48:51;;;;;;;;;;;;;;;22.61;55.59;98572.91;7311795;19;129278;-39
2023/05/15 11:51:18;;;;;;;;;;;;;;;22.56;54.89;98570.78;7307526;19;129383;-41
2023/05/15 11:53:44;;;;;;;;;;;;;;;22.58;55.05;98583.72;7306873;19;129664;-40
2023/05/15 11:56:20;;;;;;;;;;;;;;;22.57;55.29;98585.53;7310038;19;128892;-39
2023/05/15 11:58:54;;;;;;;;;;;;;;;22.57;55.12;98592.56;7310738;19;129086;-42
2023/05/15 12:01:19;;;;;;;;;;;;;;;22.59;55.82;98601.88;7308422;19;130266;-41
2023/05/15 12:03:48;;;;;;;;;;;;;;;22.60;55.10;98602.69;7310758;19;130325;-39
2023/05/15 12:06:13;;;;;;;;;;;;;;;22.52;55.66;98584.38;7308556;19;131604;-40
2023/05/15 12:08:40;;;;;;;;;;;;;;;22.60;55.91;98605.31;7310498;19;129774;-39
2023/05/15 12:11:06;;;;;;;;;;;;;;;22.59;55.27;98604.50;7308510;19;129173;-39
2023/05/15 12:13:31;;;;;;;;;;;;;;;22.60;55.47;98602.69;7307652;19;129951;-39
2023/05/15 12:15:57;;;;;;;;;;;;;;;22.60;55.78;98592.22;7305141;19;129276;-40
2023/05/15 12:18:23;;;;;;;;;;;;;;;22.59;55.25;98590.59;7311968;19;129353;-40
2023/05/15 12:20:50;;;;;;;;;;;;;;;22.59;55.83;98585.34;7309013;19;129566;-40
2023/05/15 12:23:16;;;;;;;;;;;;;;;22.58;55.50;98588.94;7314103;19;129777;-38
2023/05/15 12:25:42;;;;;;;;;;;;;;;22.58;55.83;98578.47;7313949;19;129358;-40
2023/05/15 12:28:07;;;;;;;;;;;;;;;22.57;55.46;98584.72;7317333;19;129674;-39
2023/05/15 12:30:33;;;;;;;;;;;;;;;22.58;55.56;98573.22;7315929;19;129621;-40
2023/05/15 12:33:01;;;;;;;;;;;;;;;22.59;55.75;98575.69;7313580;19;129867;-40